LFMD 211130Z AUTO VRB03KT CAVOK 14/03 Q1022 NOSIG

ElémentsDécodage
LFMD Station météo située sur l'aérodrome de CANNES Mandelieu
211130Z émis le 21 du mois à 11h30 UTC
AUTO Bulletin édité par un automate
VRB03KT vent de direction variable, 03 noeuds
CAVOK Ceiling And Visibility OK
- Visibilité de 10 Km ou plus
- Pas de nuage au-dessous de 1500m ou au-dessous de l'altitude minimale du secteur la plus élevée (si>1500m) et absence de CB
- pas de temps présent significatif
14/03 température 14°C, point de rosée 03°C
 soit une humidité relative de 47%
Q1022 la pression au niveau de la mer (QNH) est de 1022 hPa
NOSIG Pas de changement significatif prévu au cours des deux heures suivant l'heure de l'observation